sensor_id;sensor_type;location;lat;lon;timestamp;P1;durP1;ratioP1;P2;durP2;ratioP2
8944;SDS011;4507;40.232;29.132;2023-02-01T00:00:14;49.63;;;44.27;;
8944;SDS011;4507;40.232;29.132;2023-02-01T00:02:43;49.70;;;44.40;;
8944;SDS011;4507;40.232;29.132;2023-02-01T00:05:14;52.50;;;46.03;;
8944;SDS011;4507;40.232;29.132;2023-02-01T00:07:46;49.50;;;44.23;;
8944;SDS011;4507;40.232;29.132;2023-02-01T00:10:17;50.97;;;45.47;;
8944;SDS011;4507;40.232;29.132;2023-02-01T00:12:46;48.40;;;43.20;;
8944;SDS011;4507;40.232;29.132;2023-02-01T00:15:16;49.23;;;43.93;;
8944;SDS011;4507;40.232;29.132;2023-02-01T00:17:45;46.93;;;41.97;;
8944;SDS011;4507;40.232;29.132;2023-02-01T00:20:15;48.47;;;43.20;;
8944;SDS011;4507;40.232;29.132;2023-02-01T00:22:44;50.87;;;44.50;;
8944;SDS011;4507;40.232;29.132;2023-02-01T00:25:14;92.10;;;82.23;;
8944;SDS011;4507;40.232;29.132;2023-02-01T00:27:43;85.57;;;66.00;;
8944;SDS011;4507;40.232;29.132;2023-02-01T00:30:17;80.83;;;71.10;;
8944;SDS011;4507;40.232;29.132;2023-02-01T00:32:46;53.43;;;47.47;;
8944;SDS011;4507;40.232;29.132;2023-02-01T00:35:17;60.03;;;50.17;;
8944;SDS011;4507;40.232;29.132;2023-02-01T00:37:46;69.13;;;60.63;;
8944;SDS011;4507;40.232;29.132;2023-02-01T00:40:15;76.63;;;68.40;;
8944;SDS011;4507;40.232;29.132;2023-02-01T00:42:44;61.17;;;51.83;;
8944;SDS011;4507;40.232;29.132;2023-02-01T00:45:14;75.47;;;59.13;;
8944;SDS011;4507;40.232;29.132;2023-02-01T00:47:43;66.83;;;54.83;;
8944;SDS011;4507;40.232;29.132;2023-02-01T00:50:32;76.20;;;58.83;;
8944;SDS011;4507;40.232;29.132;2023-02-01T00:53:01;71.13;;;58.07;;
8944;SDS011;4507;40.232;29.132;2023-02-01T00:55:30;71.70;;;59.23;;
8944;SDS011;4507;40.232;29.132;2023-02-01T00:57:59;81.43;;;62.70;;
8944;SDS011;4507;40.232;29.132;2023-02-01T01:00:28;71.47;;;59.13;;
8944;SDS011;4507;40.232;29.132;2023-02-01T01:02:57;70.20;;;57.30;;
8944;SDS011;4507;40.232;29.132;2023-02-01T01:05:26;92.87;;;74.07;;
8944;SDS011;4507;40.232;29.132;2023-02-01T01:07:57;107.40;;;84.03;;
8944;SDS011;4507;40.232;29.132;2023-02-01T01:10:26;153.13;;;128.63;;
8944;SDS011;4507;40.232;29.132;2023-02-01T01:12:55;170.97;;;145.90;;
8944;SDS011;4507;40.232;29.132;2023-02-01T01:15:25;91.23;;;81.33;;
8944;SDS011;4507;40.232;29.132;2023-02-01T01:18:12;57.43;;;51.20;;
8944;SDS011;4507;40.232;29.132;2023-02-01T01:20:41;69.40;;;61.87;;
8944;SDS011;4507;40.232;29.132;2023-02-01T01:23:12;56.50;;;49.93;;
8944;SDS011;4507;40.232;29.132;2023-02-01T01:25:41;56.07;;;47.53;;
8944;SDS011;4507;40.232;29.132;2023-02-01T01:28:10;71.03;;;61.97;;
8944;SDS011;4507;40.232;29.132;2023-02-01T01:30:39;63.63;;;55.03;;
8944;SDS011;4507;40.232;29.132;2023-02-01T01:33:08;63.03;;;54.77;;
8944;SDS011;4507;40.232;29.132;2023-02-01T01:35:37;66.57;;;54.90;;
8944;SDS011;4507;40.232;29.132;2023-02-01T01:38:06;66.40;;;56.20;;
8944;SDS011;4507;40.232;29.132;2023-02-01T01:40:39;67.40;;;56.50;;
8944;SDS011;4507;40.232;29.132;2023-02-01T01:43:11;74.23;;;60.63;;
8944;SDS011;4507;40.232;29.132;2023-02-01T01:45:42;77.47;;;64.73;;
8944;SDS011;4507;40.232;29.132;2023-02-01T01:48:13;76.40;;;66.97;;
8944;SDS011;4507;40.232;29.132;2023-02-01T01:50:47;85.37;;;68.47;;
8944;SDS011;4507;40.232;29.132;2023-02-01T01:53:22;82.33;;;68.13;;
8944;SDS011;4507;40.232;29.132;2023-02-01T01:55:56;85.80;;;70.23;;
8944;SDS011;4507;40.232;29.132;2023-02-01T01:58:26;74.50;;;61.07;;
8944;SDS011;4507;40.232;29.132;2023-02-01T02:00:57;74.80;;;62.00;;
8944;SDS011;4507;40.232;29.132;2023-02-01T02:03:27;78.60;;;62.77;;
8944;SDS011;4507;40.232;29.132;2023-02-01T02:06:02;77.33;;;63.73;;
8944;SDS011;4507;40.232;29.132;2023-02-01T02:08:34;84.13;;;67.03;;
8944;SDS011;4507;40.232;29.132;2023-02-01T02:11:08;75.03;;;60.73;;
8944;SDS011;4507;40.232;29.132;2023-02-01T02:13:40;81.13;;;63.80;;
8944;SDS011;4507;40.232;29.132;2023-02-01T02:19:22;70.87;;;59.10;;
8944;SDS011;4507;40.232;29.132;2023-02-01T02:22:25;62.83;;;54.50;;
8944;SDS011;4507;40.232;29.132;2023-02-01T02:28:21;65.13;;;53.27;;
8944;SDS011;4507;40.232;29.132;2023-02-01T02:31:23;57.40;;;49.77;;
8944;SDS011;4507;40.232;29.132;2023-02-01T02:34:13;50.67;;;45.20;;
8944;SDS011;4507;40.232;29.132;2023-02-01T02:36:48;43.73;;;38.97;;
8944;SDS011;4507;40.232;29.132;2023-02-01T02:39:29;41.97;;;37.37;;
8944;SDS011;4507;40.232;29.132;2023-02-01T02:42:10;37.30;;;33.50;;
8944;SDS011;4507;40.232;29.132;2023-02-01T02:45:01;32.57;;;29.23;;
8944;SDS011;4507;40.232;29.132;2023-02-01T02:47:54;35.07;;;31.43;;
8944;SDS011;4507;40.232;29.132;2023-02-01T02:50:27;42.40;;;37.87;;
8944;SDS011;4507;40.232;29.132;2023-02-01T02:53:30;81.80;;;65.67;;
8944;SDS011;4507;40.232;29.132;2023-02-01T02:56:23;39.83;;;35.57;;
8944;SDS011;4507;40.232;29.132;2023-02-01T02:59:12;42.13;;;37.83;;
8944;SDS011;4507;40.232;29.132;2023-02-01T03:02:01;74.97;;;67.80;;
8944;SDS011;4507;40.232;29.132;2023-02-01T03:04:51;38.33;;;34.30;;
8944;SDS011;4507;40.232;29.132;2023-02-01T03:10:27;36.43;;;32.53;;
8944;SDS011;4507;40.232;29.132;2023-02-01T03:13:05;38.00;;;33.80;;
8944;SDS011;4507;40.232;29.132;2023-02-01T03:15:38;36.67;;;32.77;;
8944;SDS011;4507;40.232;29.132;2023-02-01T03:18:11;39.07;;;34.63;;
8944;SDS011;4507;40.232;29.132;2023-02-01T03:20:46;44.60;;;39.80;;
8944;SDS011;4507;40.232;29.132;2023-02-01T03:23:21;48.80;;;40.70;;
8944;SDS011;4507;40.232;29.132;2023-02-01T03:25:54;48.20;;;42.30;;
8944;SDS011;4507;40.232;29.132;2023-02-01T03:28:28;49.53;;;42.03;;
8944;SDS011;4507;40.232;29.132;2023-02-01T03:31:01;46.67;;;41.10;;
8944;SDS011;4507;40.232;29.132;2023-02-01T03:33:31;47.37;;;41.13;;
8944;SDS011;4507;40.232;29.132;2023-02-01T03:36:03;46.97;;;41.83;;
8944;SDS011;4507;40.232;29.132;2023-02-01T03:38:42;50.47;;;44.77;;
8944;SDS011;4507;40.232;29.132;2023-02-01T03:41:21;53.00;;;46.13;;
8944;SDS011;4507;40.232;29.132;2023-02-01T03:43:56;52.73;;;46.00;;
8944;SDS011;4507;40.232;29.132;2023-02-01T03:46:50;77.97;;;67.10;;
8944;SDS011;4507;40.232;29.132;2023-02-01T03:49:24;91.37;;;81.30;;
8944;SDS011;4507;40.232;29.132;2023-02-01T03:51:57;51.30;;;45.47;;
8944;SDS011;4507;40.232;29.132;2023-02-01T03:54:29;48.53;;;41.40;;
8944;SDS011;4507;40.232;29.132;2023-02-01T03:57:00;48.90;;;42.13;;
8944;SDS011;4507;40.232;29.132;2023-02-01T03:59:33;48.80;;;43.00;;
8944;SDS011;4507;40.232;29.132;2023-02-01T04:02:06;51.20;;;45.60;;
8944;SDS011;4507;40.232;29.132;2023-02-01T04:04:35;69.87;;;56.13;;
8944;SDS011;4507;40.232;29.132;2023-02-01T04:07:05;66.33;;;52.17;;
8944;SDS011;4507;40.232;29.132;2023-02-01T04:09:35;63.73;;;51.93;;
8944;SDS011;4507;40.232;29.132;2023-02-01T04:12:04;57.47;;;48.47;;
8944;SDS011;4507;40.232;29.132;2023-02-01T04:14:34;57.17;;;49.83;;
8944;SDS011;4507;40.232;29.132;2023-02-01T04:17:03;51.50;;;45.83;;
8944;SDS011;4507;40.232;29.132;2023-02-01T04:19:32;42.87;;;38.27;;
8944;SDS011;4507;40.232;29.132;2023-02-01T04:22:01;42.90;;;38.43;;
8944;SDS011;4507;40.232;29.132;2023-02-01T04:24:30;42.93;;;37.97;;
8944;SDS011;4507;40.232;29.132;2023-02-01T04:27:00;44.53;;;40.07;;
8944;SDS011;4507;40.232;29.132;2023-02-01T04:29:30;46.97;;;42.43;;
8944;SDS011;4507;40.232;29.132;2023-02-01T04:31:59;51.47;;;43.50;;
8944;SDS011;4507;40.232;29.132;2023-02-01T04:34:28;45.27;;;39.97;;
8944;SDS011;4507;40.232;29.132;2023-02-01T04:36:57;32.73;;;29.23;;
8944;SDS011;4507;40.232;29.132;2023-02-01T04:39:26;45.80;;;38.63;;
8944;SDS011;4507;40.232;29.132;2023-02-01T04:41:55;46.37;;;41.30;;
8944;SDS011;4507;40.232;29.132;2023-02-01T04:44:26;39.50;;;35.10;;
8944;SDS011;4507;40.232;29.132;2023-02-01T04:46:55;50.43;;;41.17;;
8944;SDS011;4507;40.232;29.132;2023-02-01T04:49:25;47.57;;;41.17;;
8944;SDS011;4507;40.232;29.132;2023-02-01T04:51:54;60.43;;;48.60;;
8944;SDS011;4507;40.232;29.132;2023-02-01T04:54:23;54.83;;;44.97;;
8944;SDS011;4507;40.232;29.132;2023-02-01T04:56:52;55.00;;;47.77;;
8944;SDS011;4507;40.232;29.132;2023-02-01T04:59:21;42.97;;;37.10;;
8944;SDS011;4507;40.232;29.132;2023-02-01T05:01:52;46.40;;;40.53;;
8944;SDS011;4507;40.232;29.132;2023-02-01T05:04:21;40.20;;;35.70;;
8944;SDS011;4507;40.232;29.132;2023-02-01T05:06:50;42.60;;;37.10;;
8944;SDS011;4507;40.232;29.132;2023-02-01T05:09:18;35.97;;;31.83;;
8944;SDS011;4507;40.232;29.132;2023-02-01T05:11:48;41.70;;;36.97;;
8944;SDS011;4507;40.232;29.132;2023-02-01T05:14:35;42.50;;;37.83;;
8944;SDS011;4507;40.232;29.132;2023-02-01T05:17:05;40.50;;;36.10;;
8944;SDS011;4507;40.232;29.132;2023-02-01T05:19:34;51.87;;;42.40;;
8944;SDS011;4507;40.232;29.132;2023-02-01T05:22:03;50.83;;;41.97;;
8944;SDS011;4507;40.232;29.132;2023-02-01T05:24:33;42.83;;;37.17;;
8944;SDS011;4507;40.232;29.132;2023-02-01T05:27:02;41.90;;;35.87;;
8944;SDS011;4507;40.232;29.132;2023-02-01T05:29:37;46.60;;;37.57;;
8944;SDS011;4507;40.232;29.132;2023-02-01T05:32:08;47.10;;;37.70;;
8944;SDS011;4507;40.232;29.132;2023-02-01T05:34:48;39.47;;;34.60;;
8944;SDS011;4507;40.232;29.132;2023-02-01T05:37:17;42.90;;;35.60;;
8944;SDS011;4507;40.232;29.132;2023-02-01T05:39:46;42.50;;;35.70;;
8944;SDS011;4507;40.232;29.132;2023-02-01T05:42:15;41.13;;;34.73;;
8944;SDS011;4507;40.232;29.132;2023-02-01T05:44:44;37.27;;;33.20;;
8944;SDS011;4507;40.232;29.132;2023-02-01T05:47:14;39.87;;;34.83;;
8944;SDS011;4507;40.232;29.132;2023-02-01T05:49:43;43.50;;;38.10;;
8944;SDS011;4507;40.232;29.132;2023-02-01T05:52:13;46.50;;;41.37;;
8944;SDS011;4507;40.232;29.132;2023-02-01T05:54:46;50.03;;;43.47;;
8944;SDS011;4507;40.232;29.132;2023-02-01T05:57:15;50.30;;;43.73;;
8944;SDS011;4507;40.232;29.132;2023-02-01T05:59:44;55.17;;;45.90;;
8944;SDS011;4507;40.232;29.132;2023-02-01T06:02:15;60.20;;;48.53;;
8944;SDS011;4507;40.232;29.132;2023-02-01T06:05:04;62.57;;;49.50;;
8944;SDS011;4507;40.232;29.132;2023-02-01T06:07:34;67.93;;;46.87;;
8944;SDS011;4507;40.232;29.132;2023-02-01T06:10:03;70.10;;;50.10;;
8944;SDS011;4507;40.232;29.132;2023-02-01T06:12:33;77.43;;;51.57;;
8944;SDS011;4507;40.232;29.132;2023-02-01T06:15:02;124.67;;;101.43;;
8944;SDS011;4507;40.232;29.132;2023-02-01T06:17:33;199.07;;;149.53;;
8944;SDS011;4507;40.232;29.132;2023-02-01T06:20:02;77.63;;;58.03;;
8944;SDS011;4507;40.232;29.132;2023-02-01T06:22:33;48.00;;;37.10;;
8944;SDS011;4507;40.232;29.132;2023-02-01T06:25:03;46.77;;;38.27;;
8944;SDS011;4507;40.232;29.132;2023-02-01T06:27:32;75.63;;;52.80;;
8944;SDS011;4507;40.232;29.132;2023-02-01T06:30:02;81.33;;;55.07;;
8944;SDS011;4507;40.232;29.132;2023-02-01T06:32:34;76.37;;;51.03;;
8944;SDS011;4507;40.232;29.132;2023-02-01T06:35:22;48.47;;;38.90;;
8944;SDS011;4507;40.232;29.132;2023-02-01T06:37:51;40.17;;;32.23;;
8944;SDS011;4507;40.232;29.132;2023-02-01T06:40:20;38.57;;;31.43;;
8944;SDS011;4507;40.232;29.132;2023-02-01T06:42:50;39.30;;;31.90;;
8944;SDS011;4507;40.232;29.132;2023-02-01T06:45:19;62.03;;;55.43;;
8944;SDS011;4507;40.232;29.132;2023-02-01T06:47:49;49.53;;;40.33;;
8944;SDS011;4507;40.232;29.132;2023-02-01T06:50:18;49.20;;;40.63;;
8944;SDS011;4507;40.232;29.132;2023-02-01T06:52:48;46.53;;;39.13;;
8944;SDS011;4507;40.232;29.132;2023-02-01T06:55:17;54.90;;;45.60;;
8944;SDS011;4507;40.232;29.132;2023-02-01T06:57:46;51.83;;;41.50;;
8944;SDS011;4507;40.232;29.132;2023-02-01T07:00:15;43.30;;;35.67;;
8944;SDS011;4507;40.232;29.132;2023-02-01T07:02:45;38.57;;;31.70;;
8944;SDS011;4507;40.232;29.132;2023-02-01T07:05:15;37.47;;;30.70;;
8944;SDS011;4507;40.232;29.132;2023-02-01T07:07:44;58.07;;;50.60;;
8944;SDS011;4507;40.232;29.132;2023-02-01T07:10:14;48.67;;;42.17;;
8944;SDS011;4507;40.232;29.132;2023-02-01T07:12:43;93.13;;;70.90;;
8944;SDS011;4507;40.232;29.132;2023-02-01T07:15:12;118.63;;;86.77;;
8944;SDS011;4507;40.232;29.132;2023-02-01T07:17:41;91.77;;;75.70;;
8944;SDS011;4507;40.232;29.132;2023-02-01T07:20:11;93.80;;;83.25;;
8944;SDS011;4507;40.232;29.132;2023-02-01T07:22:42;95.70;;;71.73;;
8944;SDS011;4507;40.232;29.132;2023-02-01T07:25:11;79.32;;;65.97;;
8944;SDS011;4507;40.232;29.132;2023-02-01T07:27:40;96.10;;;80.93;;
8944;SDS011;4507;40.232;29.132;2023-02-01T07:30:09;131.77;;;117.27;;
8944;SDS011;4507;40.232;29.132;2023-02-01T07:32:39;153.13;;;125.22;;
8944;SDS011;4507;40.232;29.132;2023-02-01T07:35:09;141.33;;;122.37;;
8944;SDS011;4507;40.232;29.132;2023-02-01T07:37:38;148.47;;;120.53;;
8944;SDS011;4507;40.232;29.132;2023-02-01T07:40:09;147.17;;;123.13;;
8944;SDS011;4507;40.232;29.132;2023-02-01T07:42:39;168.37;;;141.93;;
8944;SDS011;4507;40.232;29.132;2023-02-01T07:45:08;203.10;;;170.83;;
8944;SDS011;4507;40.232;29.132;2023-02-01T07:47:47;198.53;;;156.23;;
8944;SDS011;4507;40.232;29.132;2023-02-01T07:50:16;164.40;;;131.23;;
8944;SDS011;4507;40.232;29.132;2023-02-01T07:52:46;135.10;;;108.13;;
8944;SDS011;4507;40.232;29.132;2023-02-01T07:55:16;138.10;;;114.57;;
8944;SDS011;4507;40.232;29.132;2023-02-01T07:57:45;120.50;;;101.07;;
8944;SDS011;4507;40.232;29.132;2023-02-01T08:00:15;135.67;;;110.90;;
8944;SDS011;4507;40.232;29.132;2023-02-01T08:03:03;145.87;;;114.77;;
8944;SDS011;4507;40.232;29.132;2023-02-01T08:05:32;125.00;;;99.87;;
8944;SDS011;4507;40.232;29.132;2023-02-01T08:08:04;97.70;;;77.97;;
8944;SDS011;4507;40.232;29.132;2023-02-01T08:10:35;85.90;;;71.30;;
8944;SDS011;4507;40.232;29.132;2023-02-01T08:13:04;76.40;;;63.23;;
8944;SDS011;4507;40.232;29.132;2023-02-01T08:15:33;63.27;;;55.10;;
8944;SDS011;4507;40.232;29.132;2023-02-01T08:18:02;70.57;;;58.13;;
8944;SDS011;4507;40.232;29.132;2023-02-01T08:20:31;68.37;;;56.57;;
8944;SDS011;4507;40.232;29.132;2023-02-01T08:23:02;80.60;;;66.93;;
8944;SDS011;4507;40.232;29.132;2023-02-01T08:25:37;63.73;;;54.90;;
8944;SDS011;4507;40.232;29.132;2023-02-01T08:28:06;65.73;;;55.73;;
8944;SDS011;4507;40.232;29.132;2023-02-01T08:30:36;73.73;;;61.40;;
8944;SDS011;4507;40.232;29.132;2023-02-01T08:33:05;61.77;;;53.90;;
8944;SDS011;4507;40.232;29.132;2023-02-01T08:35:34;52.43;;;44.40;;
8944;SDS011;4507;40.232;29.132;2023-02-01T08:38:09;56.07;;;48.20;;
8944;SDS011;4507;40.232;29.132;2023-02-01T08:40:40;58.83;;;51.53;;
8944;SDS011;4507;40.232;29.132;2023-02-01T08:43:09;66.77;;;55.40;;
8944;SDS011;4507;40.232;29.132;2023-02-01T08:45:39;117.23;;;92.27;;
8944;SDS011;4507;40.232;29.132;2023-02-01T08:48:08;89.27;;;77.80;;
8944;SDS011;4507;40.232;29.132;2023-02-01T08:50:37;72.07;;;60.07;;
8944;SDS011;4507;40.232;29.132;2023-02-01T08:53:06;72.10;;;57.80;;
8944;SDS011;4507;40.232;29.132;2023-02-01T08:55:35;72.63;;;54.60;;
8944;SDS011;4507;40.232;29.132;2023-02-01T08:58:05;66.77;;;54.27;;
8944;SDS011;4507;40.232;29.132;2023-02-01T09:00:34;64.93;;;52.17;;
8944;SDS011;4507;40.232;29.132;2023-02-01T09:03:03;84.97;;;70.70;;
8944;SDS011;4507;40.232;29.132;2023-02-01T09:05:32;59.73;;;52.80;;
8944;SDS011;4507;40.232;29.132;2023-02-01T09:08:15;47.73;;;41.57;;
8944;SDS011;4507;40.232;29.132;2023-02-01T09:10:45;44.97;;;38.80;;
8944;SDS011;4507;40.232;29.132;2023-02-01T09:13:16;49.53;;;42.70;;
8944;SDS011;4507;40.232;29.132;2023-02-01T09:15:45;58.60;;;51.97;;
8944;SDS011;4507;40.232;29.132;2023-02-01T09:18:14;49.87;;;43.60;;
8944;SDS011;4507;40.232;29.132;2023-02-01T09:20:43;47.83;;;42.73;;
8944;SDS011;4507;40.232;29.132;2023-02-01T09:23:12;54.47;;;45.43;;
8944;SDS011;4507;40.232;29.132;2023-02-01T09:25:41;61.10;;;50.70;;
8944;SDS011;4507;40.232;29.132;2023-02-01T09:28:10;52.77;;;42.87;;
8944;SDS011;4507;40.232;29.132;2023-02-01T09:30:40;65.47;;;58.27;;
8944;SDS011;4507;40.232;29.132;2023-02-01T09:33:09;60.57;;;49.63;;
8944;SDS011;4507;40.232;29.132;2023-02-01T09:35:38;53.93;;;45.93;;
8944;SDS011;4507;40.232;29.132;2023-02-01T09:38:08;52.83;;;46.50;;
8944;SDS011;4507;40.232;29.132;2023-02-01T09:40:39;52.93;;;47.23;;
8944;SDS011;4507;40.232;29.132;2023-02-01T09:43:19;49.43;;;43.37;;
8944;SDS011;4507;40.232;29.132;2023-02-01T09:45:59;43.23;;;38.27;;
8944;SDS011;4507;40.232;29.132;2023-02-01T09:48:37;46.43;;;41.37;;
8944;SDS011;4507;40.232;29.132;2023-02-01T09:51:12;44.33;;;34.73;;
8944;SDS011;4507;40.232;29.132;2023-02-01T09:53:46;31.77;;;26.63;;
8944;SDS011;4507;40.232;29.132;2023-02-01T09:56:21;29.10;;;24.10;;
8944;SDS011;4507;40.232;29.132;2023-02-01T09:58:55;33.57;;;26.90;;
8944;SDS011;4507;40.232;29.132;2023-02-01T10:01:31;39.10;;;32.97;;
8944;SDS011;4507;40.232;29.132;2023-02-01T10:04:02;34.83;;;30.50;;
8944;SDS011;4507;40.232;29.132;2023-02-01T10:06:37;30.93;;;27.50;;
8944;SDS011;4507;40.232;29.132;2023-02-01T10:09:24;32.40;;;28.17;;
8944;SDS011;4507;40.232;29.132;2023-02-01T10:12:18;31.00;;;26.40;;
8944;SDS011;4507;40.232;29.132;2023-02-01T10:15:17;30.40;;;26.57;;
8944;SDS011;4507;40.232;29.132;2023-02-01T10:17:57;19.97;;;17.87;;
8944;SDS011;4507;40.232;29.132;2023-02-01T10:20:43;22.57;;;19.83;;
8944;SDS011;4507;40.232;29.132;2023-02-01T10:23:24;25.23;;;22.23;;
8944;SDS011;4507;40.232;29.132;2023-02-01T10:26:09;32.80;;;26.03;;
8944;SDS011;4507;40.232;29.132;2023-02-01T10:28:46;37.33;;;33.23;;
8944;SDS011;4507;40.232;29.132;2023-02-01T10:31:18;27.87;;;23.90;;
8944;SDS011;4507;40.232;29.132;2023-02-01T10:33:51;23.57;;;21.23;;
8944;SDS011;4507;40.232;29.132;2023-02-01T10:36:26;27.90;;;24.90;;
8944;SDS011;4507;40.232;29.132;2023-02-01T10:38:59;24.30;;;21.67;;
8944;SDS011;4507;40.232;29.132;2023-02-01T10:41:30;27.77;;;24.67;;
8944;SDS011;4507;40.232;29.132;2023-02-01T10:44:02;34.93;;;29.80;;
8944;SDS011;4507;40.232;29.132;2023-02-01T10:46:33;28.53;;;24.60;;
8944;SDS011;4507;40.232;29.132;2023-02-01T10:49:04;25.57;;;22.93;;
8944;SDS011;4507;40.232;29.132;2023-02-01T10:51:42;20.23;;;17.23;;
8944;SDS011;4507;40.232;29.132;2023-02-01T10:54:15;29.40;;;21.57;;
8944;SDS011;4507;40.232;29.132;2023-02-01T10:56:49;22.77;;;19.30;;
8944;SDS011;4507;40.232;29.132;2023-02-01T10:59:21;20.37;;;18.03;;
8944;SDS011;4507;40.232;29.132;2023-02-01T11:01:57;22.50;;;18.97;;
8944;SDS011;4507;40.232;29.132;2023-02-01T11:04:32;21.73;;;19.40;;
8944;SDS011;4507;40.232;29.132;2023-02-01T11:07:06;21.17;;;18.97;;
8944;SDS011;4507;40.232;29.132;2023-02-01T11:09:41;20.73;;;17.97;;
8944;SDS011;4507;40.232;29.132;2023-02-01T11:12:22;23.57;;;20.53;;
8944;SDS011;4507;40.232;29.132;2023-02-01T11:14:59;26.50;;;22.30;;
8944;SDS011;4507;40.232;29.132;2023-02-01T11:17:42;23.30;;;20.67;;
8944;SDS011;4507;40.232;29.132;2023-02-01T11:20:14;31.83;;;26.23;;
8944;SDS011;4507;40.232;29.132;2023-02-01T11:22:46;26.17;;;21.87;;
8944;SDS011;4507;40.232;29.132;2023-02-01T11:25:16;32.10;;;28.50;;
8944;SDS011;4507;40.232;29.132;2023-02-01T11:27:47;40.33;;;36.10;;
8944;SDS011;4507;40.232;29.132;2023-02-01T11:30:24;36.83;;;33.03;;
8944;SDS011;4507;40.232;29.132;2023-02-01T11:33:00;37.27;;;33.47;;
8944;SDS011;4507;40.232;29.132;2023-02-01T11:35:33;38.47;;;34.40;;
8944;SDS011;4507;40.232;29.132;2023-02-01T11:38:11;36.83;;;33.00;;
8944;SDS011;4507;40.232;29.132;2023-02-01T11:40:47;23.10;;;20.47;;
8944;SDS011;4507;40.232;29.132;2023-02-01T11:43:18;12.93;;;11.63;;
8944;SDS011;4507;40.232;29.132;2023-02-01T11:45:55;11.70;;;10.50;;
8944;SDS011;4507;40.232;29.132;2023-02-01T11:48:26;10.73;;;9.73;;
8944;SDS011;4507;40.232;29.132;2023-02-01T11:51:02;10.83;;;9.83;;
8944;SDS011;4507;40.232;29.132;2023-02-01T11:53:54;12.13;;;10.97;;
8944;SDS011;4507;40.232;29.132;2023-02-01T11:56:32;8.73;;;7.93;;
8944;SDS011;4507;40.232;29.132;2023-02-01T11:59:09;8.93;;;8.10;;
8944;SDS011;4507;40.232;29.132;2023-02-01T12:02:07;9.47;;;8.57;;
8944;SDS011;4507;40.232;29.132;2023-02-01T12:07:46;9.40;;;8.50;;
8944;SDS011;4507;40.232;29.132;2023-02-01T12:10:32;15.57;;;13.97;;
8944;SDS011;4507;40.232;29.132;2023-02-01T12:13:10;22.57;;;20.17;;
8944;SDS011;4507;40.232;29.132;2023-02-01T12:15:52;19.93;;;17.87;;
8944;SDS011;4507;40.232;29.132;2023-02-01T12:18:42;38.20;;;28.90;;
8944;SDS011;4507;40.232;29.132;2023-02-01T12:21:32;102.70;;;57.80;;
8944;SDS011;4507;40.232;29.132;2023-02-01T12:24:18;89.00;;;62.60;;
8944;SDS011;4507;40.232;29.132;2023-02-01T12:27:13;47.30;;;41.83;;
8944;SDS011;4507;40.232;29.132;2023-02-01T12:29:59;52.87;;;47.80;;
8944;SDS011;4507;40.232;29.132;2023-02-01T12:32:46;49.90;;;45.23;;
8944;SDS011;4507;40.232;29.132;2023-02-01T12:35:32;31.73;;;28.53;;
8944;SDS011;4507;40.232;29.132;2023-02-01T12:38:29;31.10;;;26.90;;
8944;SDS011;4507;40.232;29.132;2023-02-01T12:41:13;39.70;;;31.17;;
8944;SDS011;4507;40.232;29.132;2023-02-01T12:43:52;33.37;;;27.87;;
8944;SDS011;4507;40.232;29.132;2023-02-01T12:46:26;33.60;;;27.33;;
8944;SDS011;4507;40.232;29.132;2023-02-01T12:49:00;35.37;;;30.03;;
8944;SDS011;4507;40.232;29.132;2023-02-01T12:51:32;47.03;;;35.60;;
8944;SDS011;4507;40.232;29.132;2023-02-01T12:54:05;52.33;;;37.73;;
8944;SDS011;4507;40.232;29.132;2023-02-01T12:56:43;54.20;;;36.53;;
8944;SDS011;4507;40.232;29.132;2023-02-01T12:59:19;39.57;;;33.77;;
8944;SDS011;4507;40.232;29.132;2023-02-01T13:02:04;42.67;;;33.67;;
8944;SDS011;4507;40.232;29.132;2023-02-01T13:04:49;46.13;;;36.47;;
8944;SDS011;4507;40.232;29.132;2023-02-01T13:07:26;39.77;;;31.77;;
8944;SDS011;4507;40.232;29.132;2023-02-01T13:09:59;43.77;;;34.33;;
8944;SDS011;4507;40.232;29.132;2023-02-01T13:12:36;46.63;;;32.90;;
8944;SDS011;4507;40.232;29.132;2023-02-01T13:15:10;36.13;;;27.87;;
8944;SDS011;4507;40.232;29.132;2023-02-01T13:17:47;29.67;;;22.87;;
8944;SDS011;4507;40.232;29.132;2023-02-01T13:20:22;31.10;;;23.83;;
8944;SDS011;4507;40.232;29.132;2023-02-01T13:22:59;32.57;;;23.90;;
8944;SDS011;4507;40.232;29.132;2023-02-01T13:25:33;33.33;;;24.93;;
8944;SDS011;4507;40.232;29.132;2023-02-01T13:28:10;45.27;;;36.23;;
8944;SDS011;4507;40.232;29.132;2023-02-01T13:30:47;77.00;;;47.90;;
8944;SDS011;4507;40.232;29.132;2023-02-01T13:33:29;64.37;;;44.43;;
8944;SDS011;4507;40.232;29.132;2023-02-01T13:36:36;73.87;;;48.87;;
8944;SDS011;4507;40.232;29.132;2023-02-01T13:39:41;81.03;;;52.87;;
8944;SDS011;4507;40.232;29.132;2023-02-01T13:42:18;65.60;;;48.60;;
8944;SDS011;4507;40.232;29.132;2023-02-01T13:44:51;43.33;;;31.93;;
8944;SDS011;4507;40.232;29.132;2023-02-01T13:47:26;41.60;;;30.27;;
8944;SDS011;4507;40.232;29.132;2023-02-01T13:49:57;32.47;;;25.43;;
8944;SDS011;4507;40.232;29.132;2023-02-01T13:52:31;33.90;;;27.50;;
8944;SDS011;4507;40.232;29.132;2023-02-01T13:55:16;33.60;;;27.93;;
8944;SDS011;4507;40.232;29.132;2023-02-01T13:58:01;32.83;;;25.50;;
8944;SDS011;4507;40.232;29.132;2023-02-01T14:00:43;27.47;;;20.33;;
8944;SDS011;4507;40.232;29.132;2023-02-01T14:03:16;28.07;;;19.67;;
8944;SDS011;4507;40.232;29.132;2023-02-01T14:06:00;26.10;;;20.03;;
8944;SDS011;4507;40.232;29.132;2023-02-01T14:08:45;27.63;;;21.53;;
8944;SDS011;4507;40.232;29.132;2023-02-01T14:11:41;26.63;;;22.07;;
8944;SDS011;4507;40.232;29.132;2023-02-01T14:23:14;41.57;;;32.00;;
8944;SDS011;4507;40.232;29.132;2023-02-01T14:26:01;26.03;;;19.50;;
8944;SDS011;4507;40.232;29.132;2023-02-01T14:28:42;23.07;;;20.07;;
8944;SDS011;4507;40.232;29.132;2023-02-01T14:31:15;61.33;;;30.00;;
8944;SDS011;4507;40.232;29.132;2023-02-01T14:34:21;50.13;;;33.63;;
8944;SDS011;4507;40.232;29.132;2023-02-01T14:36:56;48.40;;;35.37;;
8944;SDS011;4507;40.232;29.132;2023-02-01T14:39:30;37.10;;;29.57;;
8944;SDS011;4507;40.232;29.132;2023-02-01T14:42:04;38.23;;;32.40;;
8944;SDS011;4507;40.232;29.132;2023-02-01T14:44:43;35.10;;;28.20;;
8944;SDS011;4507;40.232;29.132;2023-02-01T14:47:29;55.03;;;38.60;;
8944;SDS011;4507;40.232;29.132;2023-02-01T14:55:59;56.30;;;37.90;;
8944;SDS011;4507;40.232;29.132;2023-02-01T14:58:35;55.73;;;41.20;;
8944;SDS011;4507;40.232;29.132;2023-02-01T15:01:16;54.87;;;41.23;;
8944;SDS011;4507;40.232;29.132;2023-02-01T15:03:53;48.23;;;36.73;;
8944;SDS011;4507;40.232;29.132;2023-02-01T15:06:29;46.80;;;33.80;;
8944;SDS011;4507;40.232;29.132;2023-02-01T15:09:02;39.60;;;30.80;;
8944;SDS011;4507;40.232;29.132;2023-02-01T15:14:23;35.20;;;29.53;;
8944;SDS011;4507;40.232;29.132;2023-02-01T15:16:53;33.23;;;28.37;;
8944;SDS011;4507;40.232;29.132;2023-02-01T15:19:23;34.50;;;29.40;;
8944;SDS011;4507;40.232;29.132;2023-02-01T15:21:55;36.20;;;30.40;;
8944;SDS011;4507;40.232;29.132;2023-02-01T15:24:26;37.23;;;30.17;;
8944;SDS011;4507;40.232;29.132;2023-02-01T15:26:58;38.93;;;28.90;;
8944;SDS011;4507;40.232;29.132;2023-02-01T15:29:31;39.07;;;27.37;;
8944;SDS011;4507;40.232;29.132;2023-02-01T15:32:01;43.03;;;26.93;;
8944;SDS011;4507;40.232;29.132;2023-02-01T15:34:44;42.67;;;28.33;;
8944;SDS011;4507;40.232;29.132;2023-02-01T15:37:15;39.60;;;28.70;;
8944;SDS011;4507;40.232;29.132;2023-02-01T15:40:05;37.63;;;27.70;;
8944;SDS011;4507;40.232;29.132;2023-02-01T15:43:11;36.20;;;27.83;;
8944;SDS011;4507;40.232;29.132;2023-02-01T15:45:41;32.40;;;25.40;;